createdAt,value
2022-12-19T00:00:15.520Z,100
2022-12-19T00:10:16.222Z,100
2022-12-19T00:30:16.627Z,96
2022-12-19T00:40:17.262Z,74
2022-12-19T00:50:17.762Z,63
2022-12-19T01:00:17.859Z,100
2022-12-19T01:10:18.570Z,75
2022-12-19T01:20:20.238Z,66
2022-12-19T01:30:19.105Z,54
2022-12-19T01:40:19.640Z,51
2022-12-19T01:50:20.191Z,84
2022-12-19T02:00:20.309Z,72
2022-12-19T02:10:20.849Z,88
2022-12-19T02:20:20.928Z,56
2022-12-19T02:30:21.780Z,48
2022-12-19T02:40:22.202Z,33
2022-12-19T02:50:23.160Z,28
2022-12-19T03:00:23.302Z,44
2022-12-19T03:10:24.094Z,41
2022-12-19T03:20:24.438Z,79
2022-12-19T03:30:24.944Z,97
2022-12-19T03:40:25.969Z,100
2022-12-19T03:50:26.300Z,100
2022-12-19T04:00:26.417Z,100
2022-12-19T04:10:26.767Z,100
2022-12-19T04:30:27.730Z,26
2022-12-19T04:40:28.538Z,39
2022-12-19T04:50:29.452Z,44
2022-12-19T05:00:30.130Z,39
2022-12-19T05:10:30.885Z,11
2022-12-19T05:20:31.515Z,33
2022-12-19T05:30:32.095Z,43
2022-12-19T05:40:33.133Z,15
2022-12-19T05:40:54.988Z,38
2022-12-19T05:50:38.744Z,55
2022-12-19T06:00:39.801Z,54
2022-12-19T06:20:40.566Z,37
2022-12-19T06:30:41.354Z,61
2022-12-19T06:50:42.781Z,38
2022-12-19T07:00:43.294Z,36
2022-12-19T07:20:45.298Z,23
2022-12-19T07:30:43.866Z,0
2022-12-19T07:40:44.706Z,13
2022-12-19T07:50:45.348Z,37
2022-12-19T08:00:45.678Z,20
2022-12-19T08:10:46.658Z,28
2022-12-19T08:30:48.548Z,44
2022-12-19T08:40:48.787Z,21
2022-12-19T08:50:49.572Z,60
2022-12-19T09:00:54.820Z,12
2022-12-19T09:20:50.942Z,11
2022-12-19T09:30:51.296Z,3
2022-12-19T09:40:52.077Z,44
2022-12-19T09:50:52.282Z,10
2022-12-19T10:12:15.522Z,20
2022-12-19T10:20:53.465Z,17
2022-12-19T10:30:54.020Z,48
2022-12-19T10:40:54.271Z,26
2022-12-19T11:00:55.230Z,72
2022-12-19T11:12:16.284Z,71
2022-12-19T11:26:19.646Z,89
2022-12-19T11:32:10.126Z,75
2022-12-19T11:50:57.352Z,32
2022-12-19T12:30:06.326Z,0
2022-12-19T12:32:08.254Z,0
2022-12-19T12:51:00.462Z,0
2022-12-19T13:01:00.981Z,0
2022-12-19T13:21:01.999Z,0
2022-12-19T13:31:16.145Z,0
2022-12-19T13:41:03.149Z,0
2022-12-19T13:51:04.015Z,0
2022-12-19T14:01:04.745Z,5
2022-12-19T14:22:03.239Z,13
2022-12-19T14:31:06.087Z,6
2022-12-19T14:41:08.960Z,14
2022-12-19T15:01:11.147Z,16
2022-12-19T15:11:16.292Z,17
2022-12-19T15:21:08.133Z,13
2022-12-19T15:31:08.525Z,9
2022-12-19T15:41:13.976Z,15
2022-12-19T15:51:08.957Z,16
2022-12-19T16:01:09.165Z,8
2022-12-19T16:11:09.457Z,11
2022-12-19T16:21:09.721Z,14
2022-12-19T16:31:10.745Z,18
2022-12-19T16:41:11.267Z,0
2022-12-19T16:51:11.527Z,2
2022-12-19T17:01:11.617Z,8
2022-12-19T17:31:13.333Z,16
2022-12-19T17:41:14.180Z,12
2022-12-19T18:31:16.019Z,14
2022-12-19T18:41:16.249Z,2
2022-12-19T19:41:20.350Z,3
2022-12-19T20:01:21.579Z,0
2022-12-19T20:11:22.418Z,3
2022-12-19T20:21:22.590Z,7
2022-12-19T20:31:23.514Z,6
2022-12-19T20:41:23.951Z,0
2022-12-19T20:51:24.808Z,0
2022-12-19T21:01:25.631Z,0
2022-12-19T21:11:26.499Z,0
2022-12-19T21:21:26.999Z,0
2022-12-19T21:31:28.072Z,0
2022-12-19T21:41:28.473Z,0
2022-12-19T21:51:29.336Z,0
2022-12-19T22:01:29.797Z,0
2022-12-19T22:11:30.211Z,0
2022-12-19T22:21:30.755Z,0
2022-12-19T22:31:31.504Z,0
2022-12-19T22:41:32.051Z,0
2022-12-19T22:51:32.487Z,0
2022-12-19T23:11:34.248Z,0
2022-12-19T23:21:35.207Z,0
2022-12-19T23:31:35.658Z,0
2022-12-19T23:41:35.991Z,0
2022-12-19T23:51:36.112Z,0
